sensor_id;sensor_type;location;lat;lon;timestamp;pressure;altitude;pressure_sealevel;temperature;humidity
48053;BME280;33824;51.600;5.718;2023-01-19T00:00:00;99956.41;;;2.62;96.50
48053;BME280;33824;51.600;5.718;2023-01-19T00:02:26;99954.47;;;2.64;96.75
48053;BME280;33824;51.600;5.718;2023-01-19T00:04:51;99952.22;;;2.69;95.93
48053;BME280;33824;51.600;5.718;2023-01-19T00:07:17;99947.50;;;2.72;96.05
48053;BME280;33824;51.600;5.718;2023-01-19T00:09:43;99949.91;;;2.66;96.52
48053;BME280;33824;51.600;5.718;2023-01-19T00:12:09;99954.69;;;2.70;95.94
48053;BME280;33824;51.600;5.718;2023-01-19T00:14:34;99955.28;;;2.74;96.11
48053;BME280;33824;51.600;5.718;2023-01-19T00:17:00;99971.97;;;2.82;95.74
48053;BME280;33824;51.600;5.718;2023-01-19T00:19:28;99966.88;;;2.81;95.83
48053;BME280;33824;51.600;5.718;2023-01-19T00:21:54;99972.50;;;2.86;95.61
48053;BME280;33824;51.600;5.718;2023-01-19T00:24:20;99953.00;;;2.79;95.67
48053;BME280;33824;51.600;5.718;2023-01-19T00:26:46;99961.19;;;2.76;96.00
48053;BME280;33824;51.600;5.718;2023-01-19T00:29:12;99965.22;;;2.70;96.25
48053;BME280;33824;51.600;5.718;2023-01-19T00:31:38;99965.41;;;2.69;96.60
48053;BME280;33824;51.600;5.718;2023-01-19T00:34:04;99968.03;;;2.69;96.07
48053;BME280;33824;51.600;5.718;2023-01-19T00:36:30;99971.78;;;2.66;97.05
48053;BME280;33824;51.600;5.718;2023-01-19T00:38:56;99965.69;;;2.66;96.76
48053;BME280;33824;51.600;5.718;2023-01-19T00:41:22;99968.59;;;2.63;97.06
48053;BME280;33824;51.600;5.718;2023-01-19T00:44:08;99972.22;;;2.62;97.21
48053;BME280;33824;51.600;5.718;2023-01-19T00:46:34;99969.16;;;2.66;96.82
48053;BME280;33824;51.600;5.718;2023-01-19T00:48:59;99960.69;;;2.63;96.86
48053;BME280;33824;51.600;5.718;2023-01-19T00:51:25;99972.22;;;2.62;97.25
48053;BME280;33824;51.600;5.718;2023-01-19T00:53:50;99972.22;;;2.62;97.17
48053;BME280;33824;51.600;5.718;2023-01-19T00:56:16;99977.47;;;2.62;97.19
48053;BME280;33824;51.600;5.718;2023-01-19T00:58:42;99968.75;;;2.61;97.33
48053;BME280;33824;51.600;5.718;2023-01-19T01:01:10;99963.63;;;2.60;97.07
48053;BME280;33824;51.600;5.718;2023-01-19T01:03:36;99960.03;;;2.61;97.29
48053;BME280;33824;51.600;5.718;2023-01-19T01:06:02;99954.88;;;2.59;97.34
48053;BME280;33824;51.600;5.718;2023-01-19T01:08:29;99950.63;;;2.58;97.60
48053;BME280;33824;51.600;5.718;2023-01-19T01:10:55;99958.13;;;2.53;97.52
48053;BME280;33824;51.600;5.718;2023-01-19T01:13:21;99961.56;;;2.54;97.70
48053;BME280;33824;51.600;5.718;2023-01-19T01:15:51;99961.31;;;2.47;98.00
48053;BME280;33824;51.600;5.718;2023-01-19T01:18:17;99955.19;;;2.56;97.61
48053;BME280;33824;51.600;5.718;2023-01-19T01:20:43;99969.31;;;2.55;97.84
48053;BME280;33824;51.600;5.718;2023-01-19T01:23:08;99962.53;;;2.53;97.83
48053;BME280;33824;51.600;5.718;2023-01-19T01:25:34;99963.66;;;2.50;97.98
48053;BME280;33824;51.600;5.718;2023-01-19T01:28:05;99960.63;;;2.45;97.55
48053;BME280;33824;51.600;5.718;2023-01-19T01:30:34;99969.75;;;2.51;97.77
48053;BME280;33824;51.600;5.718;2023-01-19T01:33:00;99969.59;;;2.52;97.24
48053;BME280;33824;51.600;5.718;2023-01-19T01:35:26;99963.91;;;2.57;97.08
48053;BME280;33824;51.600;5.718;2023-01-19T01:37:52;99973.03;;;2.62;97.02
48053;BME280;33824;51.600;5.718;2023-01-19T01:40:18;99970.69;;;2.59;96.88
48053;BME280;33824;51.600;5.718;2023-01-19T01:42:44;99968.88;;;2.60;97.30
48053;BME280;33824;51.600;5.718;2023-01-19T01:45:38;99968.81;;;2.42;96.74
48053;BME280;33824;51.600;5.718;2023-01-19T01:50:50;99963.06;;;2.56;96.59
48053;BME280;33824;51.600;5.718;2023-01-19T01:53:36;99961.28;;;2.57;97.16
48053;BME280;33824;51.600;5.718;2023-01-19T01:56:07;99957.28;;;2.53;97.08
48053;BME280;33824;51.600;5.718;2023-01-19T01:58:34;99960.88;;;2.52;97.64
48053;BME280;33824;51.600;5.718;2023-01-19T02:01:00;99962.53;;;2.53;98.00
48053;BME280;33824;51.600;5.718;2023-01-19T02:03:45;99969.19;;;2.57;97.83
48053;BME280;33824;51.600;5.718;2023-01-19T02:06:11;99970.44;;;2.53;98.11
48053;BME280;33824;51.600;5.718;2023-01-19T02:08:41;99968.41;;;2.37;98.03
48053;BME280;33824;51.600;5.718;2023-01-19T02:11:28;99969.28;;;2.28;98.29
48053;BME280;33824;51.600;5.718;2023-01-19T02:14:13;99961.09;;;2.21;99.01
48053;BME280;33824;51.600;5.718;2023-01-19T02:16:39;99976.91;;;2.12;99.68
48053;BME280;33824;51.600;5.718;2023-01-19T02:19:07;99972.66;;;2.01;100.00
48053;BME280;33824;51.600;5.718;2023-01-19T02:24:20;99984.13;;;1.90;100.00
48053;BME280;33824;51.600;5.718;2023-01-19T02:26:47;99976.69;;;1.86;100.00
48053;BME280;33824;51.600;5.718;2023-01-19T02:29:21;99979.84;;;1.70;100.00
48053;BME280;33824;51.600;5.718;2023-01-19T02:31:48;99976.13;;;1.73;100.00
48053;BME280;33824;51.600;5.718;2023-01-19T02:34:16;99977.63;;;1.66;100.00
48053;BME280;33824;51.600;5.718;2023-01-19T02:36:55;99983.47;;;1.60;100.00
48053;BME280;33824;51.600;5.718;2023-01-19T02:39:28;99985.50;;;1.47;100.00
48053;BME280;33824;51.600;5.718;2023-01-19T02:42:00;99977.91;;;1.43;100.00
48053;BME280;33824;51.600;5.718;2023-01-19T02:44:29;99987.56;;;1.43;100.00
48053;BME280;33824;51.600;5.718;2023-01-19T02:46:55;99990.34;;;1.41;100.00
48053;BME280;33824;51.600;5.718;2023-01-19T02:49:22;99997.25;;;1.42;100.00
48053;BME280;33824;51.600;5.718;2023-01-19T02:51:47;99996.69;;;1.39;100.00
48053;BME280;33824;51.600;5.718;2023-01-19T02:54:20;100004.41;;;1.31;100.00
48053;BME280;33824;51.600;5.718;2023-01-19T03:00:20;100001.78;;;1.21;100.00
48053;BME280;33824;51.600;5.718;2023-01-19T03:03:12;99994.31;;;1.17;100.00
48053;BME280;33824;51.600;5.718;2023-01-19T03:05:52;99989.28;;;1.04;100.00
48053;BME280;33824;51.600;5.718;2023-01-19T03:11:08;100006.72;;;1.05;100.00
48053;BME280;33824;51.600;5.718;2023-01-19T03:13:43;100011.69;;;1.08;100.00
48053;BME280;33824;51.600;5.718;2023-01-19T03:16:39;100016.94;;;0.99;100.00
48053;BME280;33824;51.600;5.718;2023-01-19T03:19:14;100008.22;;;1.08;100.00
48053;BME280;33824;51.600;5.718;2023-01-19T03:21:45;100017.66;;;1.10;100.00
48053;BME280;33824;51.600;5.718;2023-01-19T03:24:12;100009.34;;;1.15;100.00
48053;BME280;33824;51.600;5.718;2023-01-19T03:26:45;100017.50;;;1.12;100.00
48053;BME280;33824;51.600;5.718;2023-01-19T03:29:12;100021.56;;;0.85;100.00
48053;BME280;33824;51.600;5.718;2023-01-19T03:31:40;100034.94;;;1.13;100.00
48053;BME280;33824;51.600;5.718;2023-01-19T03:34:11;100036.84;;;1.11;100.00
48053;BME280;33824;51.600;5.718;2023-01-19T03:36:46;100038.78;;;1.09;100.00
48053;BME280;33824;51.600;5.718;2023-01-19T03:39:17;100040.28;;;1.11;100.00
48053;BME280;33824;51.600;5.718;2023-01-19T03:41:47;100042.53;;;1.16;100.00
48053;BME280;33824;51.600;5.718;2023-01-19T03:44:15;100056.38;;;1.18;100.00
48053;BME280;33824;51.600;5.718;2023-01-19T03:46:41;100058.28;;;1.16;100.00
48053;BME280;33824;51.600;5.718;2023-01-19T03:49:08;100059.38;;;1.13;100.00
48053;BME280;33824;51.600;5.718;2023-01-19T03:51:37;100067.47;;;1.01;100.00
48053;BME280;33824;51.600;5.718;2023-01-19T03:54:05;100068.31;;;1.01;100.00
48053;BME280;33824;51.600;5.718;2023-01-19T03:56:31;100060.38;;;0.91;100.00
48053;BME280;33824;51.600;5.718;2023-01-19T03:58:57;100063.84;;;0.92;100.00
48053;BME280;33824;51.600;5.718;2023-01-19T04:01:22;100056.69;;;0.94;100.00
48053;BME280;33824;51.600;5.718;2023-01-19T04:03:51;100049.75;;;0.93;100.00
48053;BME280;33824;51.600;5.718;2023-01-19T04:06:18;100051.81;;;0.89;100.00
48053;BME280;33824;51.600;5.718;2023-01-19T04:08:46;100072.81;;;0.89;100.00
48053;BME280;33824;51.600;5.718;2023-01-19T04:11:12;100078.72;;;0.82;100.00
48053;BME280;33824;51.600;5.718;2023-01-19T04:13:38;100066.44;;;0.82;100.00
48053;BME280;33824;51.600;5.718;2023-01-19T04:16:04;100082.88;;;0.84;100.00
48053;BME280;33824;51.600;5.718;2023-01-19T04:18:32;100087.72;;;0.89;100.00
48053;BME280;33824;51.600;5.718;2023-01-19T04:21:02;100083.28;;;0.80;100.00
48053;BME280;33824;51.600;5.718;2023-01-19T04:23:29;100072.38;;;0.84;100.00
48053;BME280;33824;51.600;5.718;2023-01-19T04:26:04;100088.19;;;0.73;100.00
48053;BME280;33824;51.600;5.718;2023-01-19T04:28:31;100086.22;;;0.86;100.00
48053;BME280;33824;51.600;5.718;2023-01-19T04:30:57;100088.97;;;0.85;100.00
48053;BME280;33824;51.600;5.718;2023-01-19T04:33:23;100083.31;;;0.89;100.00
48053;BME280;33824;51.600;5.718;2023-01-19T04:35:49;100079.91;;;0.99;100.00
48053;BME280;33824;51.600;5.718;2023-01-19T04:38:15;100095.78;;;0.97;100.00
48053;BME280;33824;51.600;5.718;2023-01-19T04:40:44;100089.72;;;0.96;100.00
48053;BME280;33824;51.600;5.718;2023-01-19T04:43:10;100087.34;;;0.93;100.00
48053;BME280;33824;51.600;5.718;2023-01-19T04:45:36;100087.91;;;0.97;100.00
48053;BME280;33824;51.600;5.718;2023-01-19T04:48:02;100099.25;;;0.98;100.00
48053;BME280;33824;51.600;5.718;2023-01-19T04:50:34;100091.22;;;0.99;100.00
48053;BME280;33824;51.600;5.718;2023-01-19T04:52:59;100081.97;;;0.95;100.00
48053;BME280;33824;51.600;5.718;2023-01-19T04:55:26;100061.63;;;0.87;100.00
48053;BME280;33824;51.600;5.718;2023-01-19T04:57:52;100046.13;;;0.84;100.00
48053;BME280;33824;51.600;5.718;2023-01-19T05:00:18;100058.56;;;0.82;100.00
48053;BME280;33824;51.600;5.718;2023-01-19T05:02:45;100052.38;;;0.83;100.00
48053;BME280;33824;51.600;5.718;2023-01-19T05:05:11;100038.69;;;0.89;100.00
48053;BME280;33824;51.600;5.718;2023-01-19T05:07:37;100041.22;;;0.91;100.00
48053;BME280;33824;51.600;5.718;2023-01-19T05:10:04;100044.25;;;0.96;100.00
48053;BME280;33824;51.600;5.718;2023-01-19T05:12:30;100042.75;;;1.03;100.00
48053;BME280;33824;51.600;5.718;2023-01-19T05:14:55;100041.41;;;1.09;100.00
48053;BME280;33824;51.600;5.718;2023-01-19T05:17:21;100039.63;;;1.09;100.00
48053;BME280;33824;51.600;5.718;2023-01-19T05:19:47;100048.16;;;1.11;100.00
48053;BME280;33824;51.600;5.718;2023-01-19T05:22:14;100064.75;;;1.12;100.00
48053;BME280;33824;51.600;5.718;2023-01-19T05:24:39;100071.97;;;1.19;100.00
48053;BME280;33824;51.600;5.718;2023-01-19T05:27:05;100065.31;;;1.15;100.00
48053;BME280;33824;51.600;5.718;2023-01-19T05:29:31;100075.44;;;1.20;100.00
48053;BME280;33824;51.600;5.718;2023-01-19T05:31:56;100069.63;;;1.16;100.00
48053;BME280;33824;51.600;5.718;2023-01-19T05:34:22;100070.44;;;1.17;100.00
48053;BME280;33824;51.600;5.718;2023-01-19T05:36:48;100072.50;;;1.13;100.00
48053;BME280;33824;51.600;5.718;2023-01-19T05:39:13;100063.81;;;1.13;100.00
48053;BME280;33824;51.600;5.718;2023-01-19T05:41:39;100078.84;;;1.11;100.00
48053;BME280;33824;51.600;5.718;2023-01-19T05:44:06;100082.19;;;1.13;100.00
48053;BME280;33824;51.600;5.718;2023-01-19T05:46:33;100085.75;;;1.12;100.00
48053;BME280;33824;51.600;5.718;2023-01-19T05:49:00;100092.53;;;1.14;100.00
48053;BME280;33824;51.600;5.718;2023-01-19T05:51:29;100092.69;;;1.13;100.00
48053;BME280;33824;51.600;5.718;2023-01-19T05:54:03;100092.25;;;1.08;100.00
48053;BME280;33824;51.600;5.718;2023-01-19T05:56:29;100100.41;;;1.14;100.00
48053;BME280;33824;51.600;5.718;2023-01-19T05:58:54;100096.97;;;1.14;100.00
48053;BME280;33824;51.600;5.718;2023-01-19T06:01:20;100109.31;;;1.23;100.00
48053;BME280;33824;51.600;5.718;2023-01-19T06:03:45;100100.19;;;1.17;100.00
48053;BME280;33824;51.600;5.718;2023-01-19T06:06:13;100098.50;;;1.16;100.00
48053;BME280;33824;51.600;5.718;2023-01-19T06:08:39;100102.09;;;1.15;100.00
48053;BME280;33824;51.600;5.718;2023-01-19T06:11:06;100116.88;;;1.16;100.00
48053;BME280;33824;51.600;5.718;2023-01-19T06:13:32;100120.75;;;1.22;100.00
48053;BME280;33824;51.600;5.718;2023-01-19T06:15:59;100124.78;;;1.26;100.00
48053;BME280;33824;51.600;5.718;2023-01-19T06:18:25;100131.59;;;1.28;100.00
48053;BME280;33824;51.600;5.718;2023-01-19T06:20:51;100125.22;;;1.31;100.00
48053;BME280;33824;51.600;5.718;2023-01-19T06:23:23;100119.03;;;1.32;100.00
48053;BME280;33824;51.600;5.718;2023-01-19T06:25:49;100129.66;;;1.30;100.00
48053;BME280;33824;51.600;5.718;2023-01-19T06:28:17;100137.13;;;1.35;100.00
48053;BME280;33824;51.600;5.718;2023-01-19T06:30:47;100132.00;;;1.33;100.00
48053;BME280;33824;51.600;5.718;2023-01-19T06:33:12;100148.22;;;1.38;100.00
48053;BME280;33824;51.600;5.718;2023-01-19T06:35:42;100146.25;;;1.31;100.00
48053;BME280;33824;51.600;5.718;2023-01-19T06:38:07;100148.09;;;1.40;100.00
48053;BME280;33824;51.600;5.718;2023-01-19T06:40:33;100158.72;;;1.38;100.00
48053;BME280;33824;51.600;5.718;2023-01-19T06:42:58;100145.31;;;1.41;100.00
48053;BME280;33824;51.600;5.718;2023-01-19T06:45:24;100164.97;;;1.47;100.00
48053;BME280;33824;51.600;5.718;2023-01-19T06:47:49;100167.16;;;1.42;100.00
48053;BME280;33824;51.600;5.718;2023-01-19T06:50:15;100173.53;;;1.39;100.00
48053;BME280;33824;51.600;5.718;2023-01-19T06:52:41;100173.38;;;1.41;100.00
48053;BME280;33824;51.600;5.718;2023-01-19T06:55:09;100178.06;;;1.37;100.00
48053;BME280;33824;51.600;5.718;2023-01-19T06:57:36;100182.91;;;1.42;100.00
48053;BME280;33824;51.600;5.718;2023-01-19T07:00:04;100183.50;;;1.45;100.00
48053;BME280;33824;51.600;5.718;2023-01-19T07:02:33;100181.13;;;1.42;100.00
48053;BME280;33824;51.600;5.718;2023-01-19T07:04:59;100189.84;;;1.43;100.00
48053;BME280;33824;51.600;5.718;2023-01-19T07:07:24;100205.06;;;1.49;100.00
48053;BME280;33824;51.600;5.718;2023-01-19T07:09:50;100210.09;;;1.52;100.00
48053;BME280;33824;51.600;5.718;2023-01-19T07:12:16;100207.31;;;1.54;100.00
48053;BME280;33824;51.600;5.718;2023-01-19T07:14:41;100211.88;;;1.52;100.00
48053;BME280;33824;51.600;5.718;2023-01-19T07:17:11;100206.88;;;1.49;100.00
48053;BME280;33824;51.600;5.718;2023-01-19T07:19:36;100213.78;;;1.50;100.00
48053;BME280;33824;51.600;5.718;2023-01-19T07:22:02;100218.78;;;1.53;100.00
48053;BME280;33824;51.600;5.718;2023-01-19T07:24:28;100220.59;;;1.52;100.00
48053;BME280;33824;51.600;5.718;2023-01-19T07:26:55;100220.44;;;1.54;100.00
48053;BME280;33824;51.600;5.718;2023-01-19T07:29:21;100225.00;;;1.52;100.00
48053;BME280;33824;51.600;5.718;2023-01-19T07:31:46;100226.53;;;1.54;100.00
48053;BME280;33824;51.600;5.718;2023-01-19T07:34:13;100225.88;;;1.62;100.00
48053;BME280;33824;51.600;5.718;2023-01-19T07:36:39;100232.25;;;1.59;100.00
48053;BME280;33824;51.600;5.718;2023-01-19T07:39:05;100239.28;;;1.59;100.00
48053;BME280;33824;51.600;5.718;2023-01-19T07:41:31;100237.34;;;1.61;100.00
48053;BME280;33824;51.600;5.718;2023-01-19T07:43:57;100236.66;;;1.59;100.00
48053;BME280;33824;51.600;5.718;2023-01-19T07:46:22;100239.69;;;1.54;100.00
48053;BME280;33824;51.600;5.718;2023-01-19T07:48:48;100237.16;;;1.53;100.00
48053;BME280;33824;51.600;5.718;2023-01-19T07:51:14;100243.81;;;1.57;100.00
48053;BME280;33824;51.600;5.718;2023-01-19T07:53:48;100246.59;;;1.55;100.00
48053;BME280;33824;51.600;5.718;2023-01-19T07:56:14;100232.94;;;1.61;100.00
48053;BME280;33824;51.600;5.718;2023-01-19T07:58:40;100251.06;;;1.64;100.00
48053;BME280;33824;51.600;5.718;2023-01-19T08:01:10;100255.63;;;1.62;100.00
48053;BME280;33824;51.600;5.718;2023-01-19T08:03:36;100249.88;;;1.78;100.00
48053;BME280;33824;51.600;5.718;2023-01-19T08:06:02;100257.38;;;1.82;100.00
48053;BME280;33824;51.600;5.718;2023-01-19T08:08:30;100262.22;;;1.87;100.00
48053;BME280;33824;51.600;5.718;2023-01-19T08:10:56;100257.53;;;1.90;100.00
48053;BME280;33824;51.600;5.718;2023-01-19T08:13:22;100272.63;;;1.88;100.00
48053;BME280;33824;51.600;5.718;2023-01-19T08:15:49;100278.72;;;1.89;100.00
48053;BME280;33824;51.600;5.718;2023-01-19T08:18:16;100282.19;;;1.89;100.00
48053;BME280;33824;51.600;5.718;2023-01-19T08:20:41;100294.75;;;1.86;100.00
48053;BME280;33824;51.600;5.718;2023-01-19T08:23:07;100293.06;;;1.85;100.00
48053;BME280;33824;51.600;5.718;2023-01-19T08:25:38;100306.22;;;1.85;100.00
48053;BME280;33824;51.600;5.718;2023-01-19T08:28:05;100307.19;;;1.84;100.00
48053;BME280;33824;51.600;5.718;2023-01-19T08:30:31;100310.53;;;1.86;100.00
48053;BME280;33824;51.600;5.718;2023-01-19T08:32:57;100305.91;;;1.78;100.00
48053;BME280;33824;51.600;5.718;2023-01-19T08:35:32;100324.75;;;1.83;100.00
48053;BME280;33824;51.600;5.718;2023-01-19T08:37:58;100328.22;;;1.84;100.00
48053;BME280;33824;51.600;5.718;2023-01-19T08:40:32;100327.75;;;1.79;100.00
48053;BME280;33824;51.600;5.718;2023-01-19T08:43:00;100331.09;;;1.81;100.00
48053;BME280;33824;51.600;5.718;2023-01-19T08:45:28;100345.38;;;1.88;100.00
48053;BME280;33824;51.600;5.718;2023-01-19T08:47:56;100347.75;;;1.91;100.00
48053;BME280;33824;51.600;5.718;2023-01-19T08:50:27;100342.19;;;1.84;100.00
48053;BME280;33824;51.600;5.718;2023-01-19T08:52:57;100351.94;;;1.93;100.00
48053;BME280;33824;51.600;5.718;2023-01-19T08:55:23;100358.59;;;1.98;100.00
48053;BME280;33824;51.600;5.718;2023-01-19T08:57:53;100359.47;;;2.08;100.00
48053;BME280;33824;51.600;5.718;2023-01-19T09:00:19;100365.28;;;2.11;100.00
48053;BME280;33824;51.600;5.718;2023-01-19T09:02:46;100357.38;;;2.02;100.00
48053;BME280;33824;51.600;5.718;2023-01-19T09:05:11;100366.31;;;1.89;100.00
48053;BME280;33824;51.600;5.718;2023-01-19T09:07:37;100373.19;;;1.90;100.00
48053;BME280;33824;51.600;5.718;2023-01-19T09:10:03;100361.28;;;1.86;100.00
48053;BME280;33824;51.600;5.718;2023-01-19T09:12:29;100369.69;;;1.80;100.00
48053;BME280;33824;51.600;5.718;2023-01-19T09:14:55;100379.75;;;1.75;100.00
48053;BME280;33824;51.600;5.718;2023-01-19T09:17:20;100372.03;;;1.74;100.00
48053;BME280;33824;51.600;5.718;2023-01-19T09:19:46;100371.75;;;1.77;100.00
48053;BME280;33824;51.600;5.718;2023-01-19T09:22:11;100383.09;;;1.77;100.00
48053;BME280;33824;51.600;5.718;2023-01-19T09:24:37;100382.06;;;1.69;100.00
48053;BME280;33824;51.600;5.718;2023-01-19T09:27:03;100385.00;;;1.75;100.00
48053;BME280;33824;51.600;5.718;2023-01-19T09:29:30;100383.56;;;1.82;100.00
48053;BME280;33824;51.600;5.718;2023-01-19T09:31:56;100389.63;;;1.83;100.00
48053;BME280;33824;51.600;5.718;2023-01-19T09:34:22;100399.75;;;1.87;100.00
48053;BME280;33824;51.600;5.718;2023-01-19T09:36:50;100394.13;;;1.92;100.00
48053;BME280;33824;51.600;5.718;2023-01-19T09:39:16;100397.88;;;1.99;100.00
48053;BME280;33824;51.600;5.718;2023-01-19T09:41:46;100398.59;;;2.01;100.00
48053;BME280;33824;51.600;5.718;2023-01-19T09:44:20;100385.00;;;2.17;100.00
48053;BME280;33824;51.600;5.718;2023-01-19T09:46:48;100388.34;;;2.28;100.00
48053;BME280;33824;51.600;5.718;2023-01-19T09:49:33;100395.19;;;2.10;100.00
48053;BME280;33824;51.600;5.718;2023-01-19T09:52:01;100399.59;;;2.10;100.00
48053;BME280;33824;51.600;5.718;2023-01-19T09:54:35;100409.25;;;2.00;100.00
48053;BME280;33824;51.600;5.718;2023-01-19T09:57:09;100408.28;;;2.01;100.00
48053;BME280;33824;51.600;5.718;2023-01-19T09:59:35;100414.56;;;2.09;100.00
48053;BME280;33824;51.600;5.718;2023-01-19T10:04:57;100422.19;;;2.12;100.00
48053;BME280;33824;51.600;5.718;2023-01-19T10:10:57;100425.69;;;2.22;100.00
48053;BME280;33824;51.600;5.718;2023-01-19T10:16:13;100426.41;;;2.24;100.00
48053;BME280;33824;51.600;5.718;2023-01-19T10:18:48;100423.81;;;2.34;100.00
48053;BME280;33824;51.600;5.718;2023-01-19T10:24:12;100437.44;;;2.18;100.00
48053;BME280;33824;51.600;5.718;2023-01-19T10:26:47;100435.44;;;2.31;100.00
48053;BME280;33824;51.600;5.718;2023-01-19T10:31:50;100437.53;;;2.37;100.00
48053;BME280;33824;51.600;5.718;2023-01-19T10:34:17;100437.00;;;2.43;100.00
48053;BME280;33824;51.600;5.718;2023-01-19T10:36:48;100439.31;;;2.58;100.00
48053;BME280;33824;51.600;5.718;2023-01-19T10:39:17;100429.25;;;2.82;100.00
48053;BME280;33824;51.600;5.718;2023-01-19T10:41:43;100443.59;;;3.08;100.00
48053;BME280;33824;51.600;5.718;2023-01-19T10:44:11;100435.16;;;3.24;100.00
48053;BME280;33824;51.600;5.718;2023-01-19T10:46:47;100434.63;;;3.30;100.00
48053;BME280;33824;51.600;5.718;2023-01-19T10:49:29;100443.88;;;3.05;100.00
48053;BME280;33824;51.600;5.718;2023-01-19T10:52:00;100442.09;;;3.15;100.00
48053;BME280;33824;51.600;5.718;2023-01-19T10:54:29;100440.44;;;3.24;100.00
48053;BME280;33824;51.600;5.718;2023-01-19T10:57:02;100441.69;;;3.39;100.00
48053;BME280;33824;51.600;5.718;2023-01-19T10:59:31;100439.22;;;3.57;100.00
48053;BME280;33824;51.600;5.718;2023-01-19T11:04:35;100436.97;;;3.62;100.00
48053;BME280;33824;51.600;5.718;2023-01-19T11:07:29;100437.97;;;3.61;100.00
48053;BME280;33824;51.600;5.718;2023-01-19T11:13:02;100438.50;;;3.83;100.00
48053;BME280;33824;51.600;5.718;2023-01-19T11:15:30;100439.59;;;3.91;100.00
48053;BME280;33824;51.600;5.718;2023-01-19T11:17:56;100449.03;;;4.03;100.00
48053;BME280;33824;51.600;5.718;2023-01-19T11:20:29;100444.88;;;3.91;100.00
48053;BME280;33824;51.600;5.718;2023-01-19T11:23:06;100438.63;;;3.82;100.00
48053;BME280;33824;51.600;5.718;2023-01-19T11:25:40;100436.59;;;3.57;100.00
48053;BME280;33824;51.600;5.718;2023-01-19T11:28:26;100432.69;;;3.61;100.00
48053;BME280;33824;51.600;5.718;2023-01-19T11:30:55;100423.94;;;3.70;100.00
48053;BME280;33824;51.600;5.718;2023-01-19T11:33:33;100436.41;;;3.77;100.00
48053;BME280;33824;51.600;5.718;2023-01-19T11:36:14;100425.19;;;3.75;100.00
48053;BME280;33824;51.600;5.718;2023-01-19T11:38:43;100427.25;;;3.81;100.00
48053;BME280;33824;51.600;5.718;2023-01-19T11:41:17;100427.25;;;3.81;100.00
48053;BME280;33824;51.600;5.718;2023-01-19T11:43:43;100420.03;;;3.93;100.00
48053;BME280;33824;51.600;5.718;2023-01-19T11:46:12;100416.00;;;3.89;100.00
48053;BME280;33824;51.600;5.718;2023-01-19T11:48:41;100418.94;;;3.96;100.00
48053;BME280;33824;51.600;5.718;2023-01-19T11:51:13;100421.41;;;3.97;100.00
48053;BME280;33824;51.600;5.718;2023-01-19T11:53:41;100425.13;;;4.04;100.00
48053;BME280;33824;51.600;5.718;2023-01-19T11:56:13;100424.03;;;4.07;100.00
48053;BME280;33824;51.600;5.718;2023-01-19T11:58:40;100424.41;;;4.12;100.00
48053;BME280;33824;51.600;5.718;2023-01-19T12:01:24;100420.03;;;4.03;100.00
48053;BME280;33824;51.600;5.718;2023-01-19T12:04:02;100423.88;;;4.08;100.00
48053;BME280;33824;51.600;5.718;2023-01-19T12:06:53;100424.75;;;3.99;99.88
48053;BME280;33824;51.600;5.718;2023-01-19T12:09:23;100423.88;;;4.08;100.00
48053;BME280;33824;51.600;5.718;2023-01-19T12:11:54;100421.69;;;3.94;100.00
48053;BME280;33824;51.600;5.718;2023-01-19T12:14:24;100426.50;;;4.08;100.00
48053;BME280;33824;51.600;5.718;2023-01-19T12:16:54;100419.44;;;4.18;100.00
48053;BME280;33824;51.600;5.718;2023-01-19T12:19:32;100418.84;;;4.24;100.00
48053;BME280;33824;51.600;5.718;2023-01-19T12:22:04;100415.16;;;4.45;100.00
48053;BME280;33824;51.600;5.718;2023-01-19T12:24:39;100420.34;;;4.27;99.00
48053;BME280;33824;51.600;5.718;2023-01-19T12:27:20;100426.75;;;4.24;98.95
48053;BME280;33824;51.600;5.718;2023-01-19T12:29:48;100415.59;;;4.40;99.39
48053;BME280;33824;51.600;5.718;2023-01-19T12:32:16;100427.91;;;4.49;99.51
48053;BME280;33824;51.600;5.718;2023-01-19T12:37:32;100415.44;;;4.42;97.34
48053;BME280;33824;51.600;5.718;2023-01-19T12:42:30;100421.53;;;4.52;98.14
48053;BME280;33824;51.600;5.718;2023-01-19T12:45:13;100426.81;;;4.42;96.54
48053;BME280;33824;51.600;5.718;2023-01-19T12:47:49;100426.91;;;4.60;97.03
48053;BME280;33824;51.600;5.718;2023-01-19T12:50:17;100424.22;;;4.69;97.16
48053;BME280;33824;51.600;5.718;2023-01-19T12:53:20;100425.78;;;4.62;96.72
48053;BME280;33824;51.600;5.718;2023-01-19T12:55:57;100431.19;;;4.61;96.05
48053;BME280;33824;51.600;5.718;2023-01-19T12:58:24;100429.28;;;4.80;97.45
48053;BME280;33824;51.600;5.718;2023-01-19T13:01:13;100427.69;;;4.70;96.20
48053;BME280;33824;51.600;5.718;2023-01-19T13:09:33;100438.16;;;4.89;95.90
48053;BME280;33824;51.600;5.718;2023-01-19T13:12:19;100435.56;;;4.79;94.48
48053;BME280;33824;51.600;5.718;2023-01-19T13:14:46;100439.75;;;5.00;96.72
48053;BME280;33824;51.600;5.718;2023-01-19T13:17:21;100432.44;;;4.94;95.52
48053;BME280;33824;51.600;5.718;2023-01-19T13:19:53;100432.28;;;4.95;96.33
48053;BME280;33824;51.600;5.718;2023-01-19T13:25:11;100434.25;;;4.93;96.64
48053;BME280;33824;51.600;5.718;2023-01-19T13:27:37;100433.53;;;4.91;95.88
48053;BME280;33824;51.600;5.718;2023-01-19T13:30:11;100432.34;;;4.86;94.81
48053;BME280;33824;51.600;5.718;2023-01-19T13:32:40;100434.66;;;4.98;94.64
48053;BME280;33824;51.600;5.718;2023-01-19T13:35:12;100434.47;;;5.00;95.04
48053;BME280;33824;51.600;5.718;2023-01-19T13:37:41;100436.88;;;4.93;95.05
48053;BME280;33824;51.600;5.718;2023-01-19T13:40:21;100435.75;;;4.68;93.82
48053;BME280;33824;51.600;5.718;2023-01-19T13:42:48;100435.84;;;4.76;95.33
48053;BME280;33824;51.600;5.718;2023-01-19T13:45:30;100435.75;;;4.68;94.07
48053;BME280;33824;51.600;5.718;2023-01-19T13:48:00;100435.22;;;4.65;94.96
48053;BME280;33824;51.600;5.718;2023-01-19T13:50:32;100441.50;;;4.64;95.63